sensor_id;sensor_type;location;lat;lon;timestamp;P1;durP1;ratioP1;P2;durP2;ratioP2
76550;SDS011;65393;53.160;18.170;2023-02-28T00:00:36;24.10;;;9.50;;
76550;SDS011;65393;53.160;18.170;2023-02-28T00:03:15;24.60;;;9.30;;
76550;SDS011;65393;53.160;18.170;2023-02-28T00:05:42;28.00;;;10.30;;
76550;SDS011;65393;53.160;18.170;2023-02-28T00:08:09;24.20;;;9.80;;
76550;SDS011;65393;53.160;18.170;2023-02-28T00:10:36;23.70;;;9.30;;
76550;SDS011;65393;53.160;18.170;2023-02-28T00:13:03;19.70;;;9.00;;
76550;SDS011;65393;53.160;18.170;2023-02-28T00:15:33;22.60;;;8.80;;
76550;SDS011;65393;53.160;18.170;2023-02-28T00:18:03;26.70;;;10.20;;
76550;SDS011;65393;53.160;18.170;2023-02-28T00:20:30;21.00;;;9.00;;
76550;SDS011;65393;53.160;18.170;2023-02-28T00:22:57;24.00;;;9.20;;
76550;SDS011;65393;53.160;18.170;2023-02-28T00:25:24;27.60;;;10.20;;
76550;SDS011;65393;53.160;18.170;2023-02-28T00:27:52;25.30;;;9.50;;
76550;SDS011;65393;53.160;18.170;2023-02-28T00:30:22;26.60;;;8.70;;
76550;SDS011;65393;53.160;18.170;2023-02-28T00:32:50;24.90;;;9.20;;
76550;SDS011;65393;53.160;18.170;2023-02-28T00:35:17;26.60;;;10.10;;
76550;SDS011;65393;53.160;18.170;2023-02-28T00:37:44;26.40;;;9.80;;
76550;SDS011;65393;53.160;18.170;2023-02-28T00:40:11;22.40;;;8.80;;
76550;SDS011;65393;53.160;18.170;2023-02-28T00:42:38;23.00;;;9.10;;
76550;SDS011;65393;53.160;18.170;2023-02-28T00:45:06;21.70;;;8.90;;
76550;SDS011;65393;53.160;18.170;2023-02-28T00:47:34;22.40;;;9.40;;
76550;SDS011;65393;53.160;18.170;2023-02-28T00:50:02;25.20;;;9.30;;
76550;SDS011;65393;53.160;18.170;2023-02-28T00:52:29;28.20;;;10.10;;
76550;SDS011;65393;53.160;18.170;2023-02-28T00:54:56;25.10;;;8.50;;
76550;SDS011;65393;53.160;18.170;2023-02-28T00:57:23;20.90;;;9.00;;
76550;SDS011;65393;53.160;18.170;2023-02-28T00:59:50;23.40;;;9.80;;
76550;SDS011;65393;53.160;18.170;2023-02-28T01:02:16;23.70;;;8.90;;
76550;SDS011;65393;53.160;18.170;2023-02-28T01:04:44;18.40;;;8.50;;
76550;SDS011;65393;53.160;18.170;2023-02-28T01:07:11;21.20;;;7.70;;
76550;SDS011;65393;53.160;18.170;2023-02-28T01:09:37;21.80;;;8.90;;
76550;SDS011;65393;53.160;18.170;2023-02-28T01:12:04;20.30;;;8.90;;
76550;SDS011;65393;53.160;18.170;2023-02-28T01:14:33;22.10;;;7.70;;
76550;SDS011;65393;53.160;18.170;2023-02-28T01:17:01;22.40;;;8.20;;
76550;SDS011;65393;53.160;18.170;2023-02-28T01:19:27;19.70;;;7.90;;
76550;SDS011;65393;53.160;18.170;2023-02-28T01:21:54;24.60;;;9.50;;
76550;SDS011;65393;53.160;18.170;2023-02-28T01:24:21;19.10;;;8.20;;
76550;SDS011;65393;53.160;18.170;2023-02-28T01:26:47;23.20;;;9.90;;
76550;SDS011;65393;53.160;18.170;2023-02-28T01:29:14;23.10;;;8.70;;
76550;SDS011;65393;53.160;18.170;2023-02-28T01:31:41;23.50;;;9.00;;
76550;SDS011;65393;53.160;18.170;2023-02-28T01:34:08;23.90;;;9.60;;
76550;SDS011;65393;53.160;18.170;2023-02-28T01:36:35;26.40;;;9.30;;
76550;SDS011;65393;53.160;18.170;2023-02-28T01:39:02;19.40;;;9.40;;
76550;SDS011;65393;53.160;18.170;2023-02-28T01:41:31;25.70;;;11.00;;
76550;SDS011;65393;53.160;18.170;2023-02-28T01:44:02;22.40;;;8.70;;
76550;SDS011;65393;53.160;18.170;2023-02-28T01:46:33;27.00;;;11.70;;
76550;SDS011;65393;53.160;18.170;2023-02-28T01:49:15;28.00;;;11.20;;
76550;SDS011;65393;53.160;18.170;2023-02-28T01:51:45;24.00;;;10.10;;
76550;SDS011;65393;53.160;18.170;2023-02-28T01:54:18;23.30;;;9.90;;
76550;SDS011;65393;53.160;18.170;2023-02-28T01:56:54;26.80;;;11.50;;
76550;SDS011;65393;53.160;18.170;2023-02-28T01:59:38;23.50;;;9.50;;
76550;SDS011;65393;53.160;18.170;2023-02-28T02:02:18;24.50;;;10.80;;
76550;SDS011;65393;53.160;18.170;2023-02-28T02:04:50;25.70;;;9.40;;
76550;SDS011;65393;53.160;18.170;2023-02-28T02:07:21;30.10;;;10.90;;
76550;SDS011;65393;53.160;18.170;2023-02-28T02:09:49;24.60;;;10.90;;
76550;SDS011;65393;53.160;18.170;2023-02-28T02:15:09;29.20;;;10.60;;
76550;SDS011;65393;53.160;18.170;2023-02-28T02:17:44;31.50;;;11.80;;
76550;SDS011;65393;53.160;18.170;2023-02-28T02:36:48;27.50;;;10.70;;
76550;SDS011;65393;53.160;18.170;2023-02-28T02:39:27;22.70;;;10.30;;
76550;SDS011;65393;53.160;18.170;2023-02-28T02:42:03;25.80;;;9.80;;
76550;SDS011;65393;53.160;18.170;2023-02-28T02:44:42;27.80;;;9.80;;
76550;SDS011;65393;53.160;18.170;2023-02-28T02:47:15;26.30;;;10.60;;
76550;SDS011;65393;53.160;18.170;2023-02-28T02:49:52;27.20;;;10.80;;
76550;SDS011;65393;53.160;18.170;2023-02-28T02:52:22;31.00;;;10.80;;
76550;SDS011;65393;53.160;18.170;2023-02-28T02:54:57;30.50;;;11.50;;
76550;SDS011;65393;53.160;18.170;2023-02-28T02:57:27;30.40;;;10.50;;
76550;SDS011;65393;53.160;18.170;2023-02-28T03:00:00;30.30;;;11.10;;
76550;SDS011;65393;53.160;18.170;2023-02-28T03:02:31;30.60;;;10.70;;
76550;SDS011;65393;53.160;18.170;2023-02-28T03:05:01;32.80;;;11.10;;
76550;SDS011;65393;53.160;18.170;2023-02-28T03:07:31;27.50;;;9.70;;
76550;SDS011;65393;53.160;18.170;2023-02-28T03:09:58;27.30;;;11.10;;
76550;SDS011;65393;53.160;18.170;2023-02-28T03:12:32;25.30;;;10.30;;
76550;SDS011;65393;53.160;18.170;2023-02-28T03:15:16;31.50;;;10.20;;
76550;SDS011;65393;53.160;18.170;2023-02-28T03:20:49;26.90;;;10.30;;
76550;SDS011;65393;53.160;18.170;2023-02-28T03:23:19;29.10;;;10.10;;
76550;SDS011;65393;53.160;18.170;2023-02-28T03:25:56;29.40;;;10.40;;
76550;SDS011;65393;53.160;18.170;2023-02-28T03:31:39;25.50;;;10.90;;
76550;SDS011;65393;53.160;18.170;2023-02-28T03:36:42;23.40;;;10.00;;
76550;SDS011;65393;53.160;18.170;2023-02-28T03:39:15;30.00;;;10.50;;
76550;SDS011;65393;53.160;18.170;2023-02-28T03:44:30;25.70;;;9.80;;
76550;SDS011;65393;53.160;18.170;2023-02-28T03:47:02;25.30;;;10.20;;
76550;SDS011;65393;53.160;18.170;2023-02-28T03:49:35;45.90;;;15.00;;
76550;SDS011;65393;53.160;18.170;2023-02-28T03:52:09;35.80;;;11.90;;
76550;SDS011;65393;53.160;18.170;2023-02-28T03:54:55;29.60;;;12.00;;
76550;SDS011;65393;53.160;18.170;2023-02-28T03:57:27;31.50;;;11.70;;
76550;SDS011;65393;53.160;18.170;2023-02-28T04:00:02;28.30;;;11.10;;
76550;SDS011;65393;53.160;18.170;2023-02-28T04:02:50;26.80;;;11.40;;
76550;SDS011;65393;53.160;18.170;2023-02-28T04:05:19;29.60;;;11.90;;
76550;SDS011;65393;53.160;18.170;2023-02-28T04:07:47;27.90;;;10.80;;
76550;SDS011;65393;53.160;18.170;2023-02-28T04:10:15;29.50;;;12.40;;
76550;SDS011;65393;53.160;18.170;2023-02-28T04:12:43;30.00;;;10.60;;
76550;SDS011;65393;53.160;18.170;2023-02-28T04:15:09;30.50;;;11.40;;
76550;SDS011;65393;53.160;18.170;2023-02-28T04:17:37;25.40;;;11.00;;
76550;SDS011;65393;53.160;18.170;2023-02-28T04:20:04;24.70;;;11.00;;
76550;SDS011;65393;53.160;18.170;2023-02-28T04:22:36;32.40;;;11.60;;
76550;SDS011;65393;53.160;18.170;2023-02-28T04:25:04;31.50;;;11.70;;
76550;SDS011;65393;53.160;18.170;2023-02-28T04:27:32;30.40;;;10.60;;
76550;SDS011;65393;53.160;18.170;2023-02-28T04:29:59;27.20;;;11.40;;
76550;SDS011;65393;53.160;18.170;2023-02-28T04:32:25;29.70;;;10.80;;
76550;SDS011;65393;53.160;18.170;2023-02-28T04:34:52;22.50;;;10.60;;
76550;SDS011;65393;53.160;18.170;2023-02-28T04:37:19;29.30;;;10.80;;
76550;SDS011;65393;53.160;18.170;2023-02-28T04:39:46;29.00;;;12.00;;
76550;SDS011;65393;53.160;18.170;2023-02-28T04:42:13;30.10;;;12.30;;
76550;SDS011;65393;53.160;18.170;2023-02-28T04:44:40;34.30;;;12.70;;
76550;SDS011;65393;53.160;18.170;2023-02-28T04:47:07;25.40;;;10.50;;
76550;SDS011;65393;53.160;18.170;2023-02-28T04:49:34;30.30;;;11.80;;
76550;SDS011;65393;53.160;18.170;2023-02-28T04:52:01;29.90;;;10.60;;
76550;SDS011;65393;53.160;18.170;2023-02-28T04:54:28;29.70;;;11.20;;
76550;SDS011;65393;53.160;18.170;2023-02-28T04:56:55;31.90;;;12.00;;
76550;SDS011;65393;53.160;18.170;2023-02-28T04:59:22;30.90;;;12.00;;
76550;SDS011;65393;53.160;18.170;2023-02-28T05:01:49;30.60;;;11.70;;
76550;SDS011;65393;53.160;18.170;2023-02-28T05:04:16;31.70;;;12.60;;
76550;SDS011;65393;53.160;18.170;2023-02-28T05:06:43;36.10;;;12.70;;
76550;SDS011;65393;53.160;18.170;2023-02-28T05:09:10;30.60;;;12.00;;
76550;SDS011;65393;53.160;18.170;2023-02-28T05:11:40;26.10;;;11.30;;
76550;SDS011;65393;53.160;18.170;2023-02-28T05:14:09;30.70;;;11.70;;
76550;SDS011;65393;53.160;18.170;2023-02-28T05:16:38;27.30;;;12.10;;
76550;SDS011;65393;53.160;18.170;2023-02-28T05:19:05;28.40;;;11.90;;
76550;SDS011;65393;53.160;18.170;2023-02-28T05:21:33;31.80;;;12.10;;
76550;SDS011;65393;53.160;18.170;2023-02-28T05:24:14;32.10;;;11.90;;
76550;SDS011;65393;53.160;18.170;2023-02-28T05:26:41;28.20;;;12.40;;
76550;SDS011;65393;53.160;18.170;2023-02-28T05:29:09;30.60;;;11.30;;
76550;SDS011;65393;53.160;18.170;2023-02-28T05:31:36;29.60;;;11.70;;
76550;SDS011;65393;53.160;18.170;2023-02-28T05:34:03;40.50;;;11.90;;
76550;SDS011;65393;53.160;18.170;2023-02-28T05:36:30;29.20;;;11.50;;
76550;SDS011;65393;53.160;18.170;2023-02-28T05:38:57;30.90;;;11.60;;
76550;SDS011;65393;53.160;18.170;2023-02-28T05:41:24;33.80;;;12.30;;
76550;SDS011;65393;53.160;18.170;2023-02-28T05:43:52;28.50;;;12.20;;
76550;SDS011;65393;53.160;18.170;2023-02-28T05:46:19;26.50;;;11.30;;
76550;SDS011;65393;53.160;18.170;2023-02-28T05:48:46;26.30;;;11.10;;
76550;SDS011;65393;53.160;18.170;2023-02-28T05:51:14;29.40;;;11.50;;
76550;SDS011;65393;53.160;18.170;2023-02-28T05:53:42;31.20;;;12.30;;
76550;SDS011;65393;53.160;18.170;2023-02-28T05:56:09;30.30;;;12.30;;
76550;SDS011;65393;53.160;18.170;2023-02-28T05:58:35;29.20;;;11.00;;
76550;SDS011;65393;53.160;18.170;2023-02-28T06:01:22;33.50;;;11.40;;
76550;SDS011;65393;53.160;18.170;2023-02-28T06:04:07;29.30;;;11.80;;
76550;SDS011;65393;53.160;18.170;2023-02-28T06:06:35;29.00;;;11.00;;
76550;SDS011;65393;53.160;18.170;2023-02-28T06:09:03;39.10;;;12.70;;
76550;SDS011;65393;53.160;18.170;2023-02-28T06:11:32;34.80;;;12.80;;
76550;SDS011;65393;53.160;18.170;2023-02-28T06:13:59;46.40;;;17.10;;
76550;SDS011;65393;53.160;18.170;2023-02-28T06:16:28;45.60;;;16.40;;
76550;SDS011;65393;53.160;18.170;2023-02-28T06:19:00;37.20;;;15.10;;
76550;SDS011;65393;53.160;18.170;2023-02-28T06:21:29;38.10;;;16.20;;
76550;SDS011;65393;53.160;18.170;2023-02-28T06:23:57;36.00;;;14.20;;
76550;SDS011;65393;53.160;18.170;2023-02-28T06:26:24;33.20;;;13.00;;
76550;SDS011;65393;53.160;18.170;2023-02-28T06:28:52;36.20;;;14.30;;
76550;SDS011;65393;53.160;18.170;2023-02-28T06:31:19;40.50;;;15.00;;
76550;SDS011;65393;53.160;18.170;2023-02-28T06:33:47;41.60;;;15.60;;
76550;SDS011;65393;53.160;18.170;2023-02-28T06:36:15;32.60;;;11.90;;
76550;SDS011;65393;53.160;18.170;2023-02-28T06:38:43;31.70;;;13.20;;
76550;SDS011;65393;53.160;18.170;2023-02-28T06:41:10;26.90;;;11.80;;
76550;SDS011;65393;53.160;18.170;2023-02-28T06:43:39;26.30;;;12.10;;
76550;SDS011;65393;53.160;18.170;2023-02-28T06:46:08;29.60;;;12.20;;
76550;SDS011;65393;53.160;18.170;2023-02-28T06:48:40;26.90;;;11.40;;
76550;SDS011;65393;53.160;18.170;2023-02-28T06:51:08;25.00;;;11.00;;
76550;SDS011;65393;53.160;18.170;2023-02-28T06:53:37;27.90;;;12.30;;
76550;SDS011;65393;53.160;18.170;2023-02-28T06:56:05;25.10;;;11.00;;
76550;SDS011;65393;53.160;18.170;2023-02-28T06:58:34;28.20;;;12.30;;
76550;SDS011;65393;53.160;18.170;2023-02-28T07:01:01;26.10;;;12.40;;
76550;SDS011;65393;53.160;18.170;2023-02-28T07:03:29;24.10;;;10.70;;
76550;SDS011;65393;53.160;18.170;2023-02-28T07:05:56;29.70;;;12.60;;
76550;SDS011;65393;53.160;18.170;2023-02-28T07:08:23;26.90;;;11.00;;
76550;SDS011;65393;53.160;18.170;2023-02-28T07:10:51;24.80;;;10.90;;
76550;SDS011;65393;53.160;18.170;2023-02-28T07:13:21;19.70;;;10.20;;
76550;SDS011;65393;53.160;18.170;2023-02-28T07:15:55;26.40;;;11.40;;
76550;SDS011;65393;53.160;18.170;2023-02-28T07:18:24;25.10;;;10.30;;
76550;SDS011;65393;53.160;18.170;2023-02-28T07:20:51;20.90;;;8.90;;
76550;SDS011;65393;53.160;18.170;2023-02-28T07:23:19;24.20;;;10.10;;
76550;SDS011;65393;53.160;18.170;2023-02-28T07:25:46;34.20;;;13.30;;
76550;SDS011;65393;53.160;18.170;2023-02-28T07:28:13;27.90;;;12.90;;
76550;SDS011;65393;53.160;18.170;2023-02-28T07:30:40;31.40;;;13.50;;
76550;SDS011;65393;53.160;18.170;2023-02-28T07:33:07;28.80;;;13.40;;
76550;SDS011;65393;53.160;18.170;2023-02-28T07:35:35;36.50;;;15.30;;
76550;SDS011;65393;53.160;18.170;2023-02-28T07:38:02;33.90;;;16.80;;
76550;SDS011;65393;53.160;18.170;2023-02-28T07:40:30;35.30;;;16.10;;
76550;SDS011;65393;53.160;18.170;2023-02-28T07:42:57;33.20;;;15.70;;
76550;SDS011;65393;53.160;18.170;2023-02-28T07:45:25;24.60;;;11.40;;
76550;SDS011;65393;53.160;18.170;2023-02-28T07:47:53;32.20;;;15.20;;
76550;SDS011;65393;53.160;18.170;2023-02-28T07:50:19;28.30;;;14.30;;
76550;SDS011;65393;53.160;18.170;2023-02-28T07:52:46;32.90;;;15.80;;
76550;SDS011;65393;53.160;18.170;2023-02-28T07:55:13;33.80;;;16.20;;
76550;SDS011;65393;53.160;18.170;2023-02-28T07:57:40;32.00;;;15.40;;
76550;SDS011;65393;53.160;18.170;2023-02-28T08:00:08;31.90;;;14.70;;
76550;SDS011;65393;53.160;18.170;2023-02-28T08:02:40;30.00;;;15.50;;
76550;SDS011;65393;53.160;18.170;2023-02-28T08:05:07;31.40;;;13.60;;
76550;SDS011;65393;53.160;18.170;2023-02-28T08:07:34;33.30;;;13.90;;
76550;SDS011;65393;53.160;18.170;2023-02-28T08:10:01;27.40;;;12.90;;
76550;SDS011;65393;53.160;18.170;2023-02-28T08:12:27;23.20;;;11.80;;
76550;SDS011;65393;53.160;18.170;2023-02-28T08:14:54;35.10;;;14.90;;
76550;SDS011;65393;53.160;18.170;2023-02-28T08:17:21;24.30;;;12.60;;
76550;SDS011;65393;53.160;18.170;2023-02-28T08:19:47;33.60;;;15.20;;
76550;SDS011;65393;53.160;18.170;2023-02-28T08:22:14;31.60;;;13.60;;
76550;SDS011;65393;53.160;18.170;2023-02-28T08:24:41;25.20;;;12.50;;
76550;SDS011;65393;53.160;18.170;2023-02-28T08:27:09;25.20;;;12.00;;
76550;SDS011;65393;53.160;18.170;2023-02-28T08:29:37;19.10;;;9.30;;
76550;SDS011;65393;53.160;18.170;2023-02-28T08:32:05;16.20;;;6.40;;
76550;SDS011;65393;53.160;18.170;2023-02-28T08:34:32;16.00;;;7.30;;
76550;SDS011;65393;53.160;18.170;2023-02-28T08:36:59;17.50;;;7.70;;
76550;SDS011;65393;53.160;18.170;2023-02-28T08:39:26;22.60;;;9.30;;
76550;SDS011;65393;53.160;18.170;2023-02-28T08:41:53;21.00;;;9.60;;
76550;SDS011;65393;53.160;18.170;2023-02-28T08:44:19;23.00;;;11.70;;
76550;SDS011;65393;53.160;18.170;2023-02-28T08:46:46;25.70;;;11.10;;
76550;SDS011;65393;53.160;18.170;2023-02-28T08:49:13;25.70;;;10.10;;
76550;SDS011;65393;53.160;18.170;2023-02-28T08:51:40;24.90;;;10.90;;
76550;SDS011;65393;53.160;18.170;2023-02-28T08:54:07;23.90;;;10.10;;
76550;SDS011;65393;53.160;18.170;2023-02-28T08:56:35;20.40;;;10.20;;
76550;SDS011;65393;53.160;18.170;2023-02-28T08:59:02;18.40;;;9.70;;
76550;SDS011;65393;53.160;18.170;2023-02-28T09:01:29;23.60;;;10.20;;
76550;SDS011;65393;53.160;18.170;2023-02-28T09:03:57;18.20;;;8.90;;
76550;SDS011;65393;53.160;18.170;2023-02-28T09:06:25;22.20;;;10.20;;
76550;SDS011;65393;53.160;18.170;2023-02-28T09:08:53;18.80;;;9.20;;
76550;SDS011;65393;53.160;18.170;2023-02-28T09:11:25;25.10;;;10.10;;
76550;SDS011;65393;53.160;18.170;2023-02-28T09:13:52;23.10;;;10.30;;
76550;SDS011;65393;53.160;18.170;2023-02-28T09:16:19;23.90;;;9.90;;
76550;SDS011;65393;53.160;18.170;2023-02-28T09:18:45;19.60;;;9.40;;
76550;SDS011;65393;53.160;18.170;2023-02-28T09:21:13;20.10;;;10.10;;
76550;SDS011;65393;53.160;18.170;2023-02-28T09:23:42;21.50;;;9.80;;
76550;SDS011;65393;53.160;18.170;2023-02-28T09:26:14;20.90;;;9.90;;
76550;SDS011;65393;53.160;18.170;2023-02-28T09:28:42;24.00;;;9.10;;
76550;SDS011;65393;53.160;18.170;2023-02-28T09:31:13;16.90;;;8.00;;
76550;SDS011;65393;53.160;18.170;2023-02-28T09:33:57;17.70;;;6.90;;
76550;SDS011;65393;53.160;18.170;2023-02-28T09:36:26;12.30;;;6.10;;
76550;SDS011;65393;53.160;18.170;2023-02-28T09:38:56;16.40;;;7.10;;
76550;SDS011;65393;53.160;18.170;2023-02-28T09:41:24;10.00;;;5.80;;
76550;SDS011;65393;53.160;18.170;2023-02-28T09:43:59;10.70;;;5.30;;
76550;SDS011;65393;53.160;18.170;2023-02-28T09:46:31;9.30;;;4.70;;
76550;SDS011;65393;53.160;18.170;2023-02-28T09:49:20;6.70;;;3.10;;
76550;SDS011;65393;53.160;18.170;2023-02-28T09:54:23;9.80;;;3.80;;
76550;SDS011;65393;53.160;18.170;2023-02-28T09:59:31;7.50;;;3.40;;
76550;SDS011;65393;53.160;18.170;2023-02-28T10:04:50;3.40;;;1.50;;
76550;SDS011;65393;53.160;18.170;2023-02-28T10:07:25;6.20;;;2.50;;
76550;SDS011;65393;53.160;18.170;2023-02-28T10:09:58;4.90;;;2.20;;
76550;SDS011;65393;53.160;18.170;2023-02-28T10:12:28;5.90;;;1.90;;
76550;SDS011;65393;53.160;18.170;2023-02-28T10:14:58;5.00;;;1.70;;
76550;SDS011;65393;53.160;18.170;2023-02-28T10:17:27;4.50;;;2.10;;
76550;SDS011;65393;53.160;18.170;2023-02-28T10:20:05;12.00;;;3.60;;
76550;SDS011;65393;53.160;18.170;2023-02-28T10:23:00;8.10;;;3.00;;
76550;SDS011;65393;53.160;18.170;2023-02-28T10:25:35;5.10;;;2.40;;
76550;SDS011;65393;53.160;18.170;2023-02-28T10:28:13;4.10;;;1.90;;
76550;SDS011;65393;53.160;18.170;2023-02-28T10:30:51;6.20;;;2.40;;
76550;SDS011;65393;53.160;18.170;2023-02-28T10:35:49;4.80;;;2.00;;
76550;SDS011;65393;53.160;18.170;2023-02-28T10:38:17;5.40;;;2.00;;
76550;SDS011;65393;53.160;18.170;2023-02-28T10:40:49;5.90;;;2.40;;
76550;SDS011;65393;53.160;18.170;2023-02-28T10:45:57;5.00;;;2.50;;
76550;SDS011;65393;53.160;18.170;2023-02-28T10:48:42;4.70;;;2.40;;
76550;SDS011;65393;53.160;18.170;2023-02-28T10:51:12;5.90;;;2.40;;
76550;SDS011;65393;53.160;18.170;2023-02-28T10:53:52;8.90;;;3.30;;
76550;SDS011;65393;53.160;18.170;2023-02-28T10:56:21;6.80;;;2.40;;
76550;SDS011;65393;53.160;18.170;2023-02-28T11:01:56;4.50;;;2.20;;
76550;SDS011;65393;53.160;18.170;2023-02-28T11:06:59;5.80;;;2.80;;
76550;SDS011;65393;53.160;18.170;2023-02-28T11:12:05;5.70;;;3.00;;
76550;SDS011;65393;53.160;18.170;2023-02-28T11:14:57;6.30;;;2.60;;
76550;SDS011;65393;53.160;18.170;2023-02-28T11:17:25;5.70;;;2.00;;
76550;SDS011;65393;53.160;18.170;2023-02-28T11:19:55;5.60;;;2.30;;
76550;SDS011;65393;53.160;18.170;2023-02-28T11:22:35;7.60;;;3.00;;
76550;SDS011;65393;53.160;18.170;2023-02-28T11:25:07;7.20;;;2.90;;
76550;SDS011;65393;53.160;18.170;2023-02-28T11:27:44;7.50;;;3.50;;
76550;SDS011;65393;53.160;18.170;2023-02-28T11:35:59;7.30;;;3.20;;
76550;SDS011;65393;53.160;18.170;2023-02-28T11:38:30;9.10;;;3.70;;
76550;SDS011;65393;53.160;18.170;2023-02-28T11:52:00;6.60;;;3.20;;
76550;SDS011;65393;53.160;18.170;2023-02-28T12:05:35;9.30;;;4.30;;
76550;SDS011;65393;53.160;18.170;2023-02-28T12:11:29;7.90;;;3.90;;
76550;SDS011;65393;53.160;18.170;2023-02-28T12:16:54;8.50;;;3.80;;
76550;SDS011;65393;53.160;18.170;2023-02-28T12:19:34;12.50;;;4.70;;
76550;SDS011;65393;53.160;18.170;2023-02-28T12:22:32;11.70;;;4.00;;
76550;SDS011;65393;53.160;18.170;2023-02-28T12:28:12;11.50;;;4.20;;
76550;SDS011;65393;53.160;18.170;2023-02-28T12:33:34;10.00;;;4.80;;
76550;SDS011;65393;53.160;18.170;2023-02-28T12:36:10;11.40;;;4.50;;
76550;SDS011;65393;53.160;18.170;2023-02-28T12:38:45;11.30;;;4.00;;
76550;SDS011;65393;53.160;18.170;2023-02-28T12:41:26;10.20;;;4.70;;
76550;SDS011;65393;53.160;18.170;2023-02-28T12:44:17;10.30;;;5.00;;
76550;SDS011;65393;53.160;18.170;2023-02-28T12:46:50;11.10;;;4.60;;
76550;SDS011;65393;53.160;18.170;2023-02-28T12:49:22;10.70;;;4.40;;
76550;SDS011;65393;53.160;18.170;2023-02-28T12:51:56;13.90;;;5.30;;
76550;SDS011;65393;53.160;18.170;2023-02-28T12:57:15;11.20;;;4.00;;
76550;SDS011;65393;53.160;18.170;2023-02-28T13:00:12;6.80;;;3.70;;
76550;SDS011;65393;53.160;18.170;2023-02-28T13:13:57;12.80;;;4.30;;
76550;SDS011;65393;53.160;18.170;2023-02-28T13:16:26;9.90;;;3.60;;
76550;SDS011;65393;53.160;18.170;2023-02-28T13:19:07;8.70;;;4.40;;
76550;SDS011;65393;53.160;18.170;2023-02-28T13:21:41;9.50;;;4.50;;
76550;SDS011;65393;53.160;18.170;2023-02-28T13:24:11;9.20;;;4.50;;
76550;SDS011;65393;53.160;18.170;2023-02-28T13:29:28;7.60;;;3.90;;
76550;SDS011;65393;53.160;18.170;2023-02-28T13:34:32;7.00;;;3.40;;
76550;SDS011;65393;53.160;18.170;2023-02-28T13:39:49;6.40;;;2.90;;
76550;SDS011;65393;53.160;18.170;2023-02-28T13:45:20;6.20;;;3.10;;
76550;SDS011;65393;53.160;18.170;2023-02-28T13:50:28;5.30;;;2.60;;
76550;SDS011;65393;53.160;18.170;2023-02-28T13:53:26;4.10;;;2.00;;
76550;SDS011;65393;53.160;18.170;2023-02-28T13:58:52;7.50;;;2.10;;
76550;SDS011;65393;53.160;18.170;2023-02-28T14:07:09;4.40;;;2.10;;
76550;SDS011;65393;53.160;18.170;2023-02-28T14:09:45;4.90;;;2.00;;
76550;SDS011;65393;53.160;18.170;2023-02-28T14:20:42;4.40;;;1.70;;
76550;SDS011;65393;53.160;18.170;2023-02-28T14:28:39;5.20;;;1.60;;
76550;SDS011;65393;53.160;18.170;2023-02-28T14:31:22;3.60;;;1.50;;
76550;SDS011;65393;53.160;18.170;2023-02-28T14:37:01;4.70;;;2.00;;
76550;SDS011;65393;53.160;18.170;2023-02-28T14:39:29;2.10;;;1.20;;
76550;SDS011;65393;53.160;18.170;2023-02-28T14:41:57;5.70;;;1.90;;
76550;SDS011;65393;53.160;18.170;2023-02-28T14:44:31;5.80;;;2.10;;
76550;SDS011;65393;53.160;18.170;2023-02-28T14:47:01;5.00;;;2.40;;
76550;SDS011;65393;53.160;18.170;2023-02-28T14:49:36;4.60;;;2.10;;
76550;SDS011;65393;53.160;18.170;2023-02-28T14:54:44;6.80;;;2.20;;
76550;SDS011;65393;53.160;18.170;2023-02-28T14:57:31;5.40;;;2.20;;
76550;SDS011;65393;53.160;18.170;2023-02-28T15:02:47;6.70;;;3.30;;
76550;SDS011;65393;53.160;18.170;2023-02-28T15:07:47;5.00;;;2.80;;
76550;SDS011;65393;53.160;18.170;2023-02-28T15:10:16;7.10;;;2.90;;
76550;SDS011;65393;53.160;18.170;2023-02-28T15:12:52;10.00;;;3.20;;
76550;SDS011;65393;53.160;18.170;2023-02-28T15:15:41;6.60;;;2.50;;
76550;SDS011;65393;53.160;18.170;2023-02-28T15:18:22;7.10;;;3.10;;
76550;SDS011;65393;53.160;18.170;2023-02-28T15:20:49;6.10;;;2.70;;
76550;SDS011;65393;53.160;18.170;2023-02-28T15:23:18;6.60;;;2.90;;
76550;SDS011;65393;53.160;18.170;2023-02-28T15:25:48;6.20;;;2.90;;
76550;SDS011;65393;53.160;18.170;2023-02-28T15:28:18;6.60;;;2.80;;
76550;SDS011;65393;53.160;18.170;2023-02-28T15:30:51;5.00;;;2.60;;
76550;SDS011;65393;53.160;18.170;2023-02-28T15:33:26;8.70;;;2.70;;
76550;SDS011;65393;53.160;18.170;2023-02-28T15:36:05;5.40;;;2.60;;
76550;SDS011;65393;53.160;18.170;2023-02-28T15:38:34;5.50;;;2.80;;
76550;SDS011;65393;53.160;18.170;2023-02-28T15:41:02;7.10;;;2.90;;
76550;SDS011;65393;53.160;18.170;2023-02-28T15:43:35;6.30;;;2.70;;
76550;SDS011;65393;53.160;18.170;2023-02-28T15:46:07;5.60;;;2.40;;
76550;SDS011;65393;53.160;18.170;2023-02-28T15:48:43;6.30;;;3.30;;
76550;SDS011;65393;53.160;18.170;2023-02-28T15:51:29;5.50;;;3.00;;
76550;SDS011;65393;53.160;18.170;2023-02-28T15:54:00;4.90;;;2.60;;
76550;SDS011;65393;53.160;18.170;2023-02-28T15:56:35;7.80;;;3.40;;
76550;SDS011;65393;53.160;18.170;2023-02-28T15:59:13;9.50;;;3.60;;
76550;SDS011;65393;53.160;18.170;2023-02-28T16:01:44;6.50;;;2.90;;
76550;SDS011;65393;53.160;18.170;2023-02-28T16:04:19;7.30;;;3.20;;
76550;SDS011;65393;53.160;18.170;2023-02-28T16:06:47;8.70;;;3.60;;
76550;SDS011;65393;53.160;18.170;2023-02-28T16:09:26;9.20;;;3.70;;
76550;SDS011;65393;53.160;18.170;2023-02-28T16:11:54;7.30;;;4.00;;
76550;SDS011;65393;53.160;18.170;2023-02-28T16:14:24;7.40;;;3.50;;
76550;SDS011;65393;53.160;18.170;2023-02-28T16:17:03;10.00;;;3.80;;
76550;SDS011;65393;53.160;18.170;2023-02-28T16:19:32;6.80;;;3.00;;
76550;SDS011;65393;53.160;18.170;2023-02-28T16:21:59;7.60;;;3.60;;
76550;SDS011;65393;53.160;18.170;2023-02-28T16:24:27;6.60;;;3.10;;
76550;SDS011;65393;53.160;18.170;2023-02-28T16:26:54;8.90;;;3.30;;
76550;SDS011;65393;53.160;18.170;2023-02-28T16:29:24;9.20;;;3.10;;
76550;SDS011;65393;53.160;18.170;2023-02-28T16:31:57;12.20;;;4.80;;
76550;SDS011;65393;53.160;18.170;2023-02-28T16:34:26;18.50;;;6.50;;
76550;SDS011;65393;53.160;18.170;2023-02-28T16:36:53;12.70;;;4.70;;
76550;SDS011;65393;53.160;18.170;2023-02-28T16:39:20;9.10;;;4.10;;
76550;SDS011;65393;53.160;18.170;2023-02-28T16:41:50;12.10;;;5.00;;
76550;SDS011;65393;53.160;18.170;2023-02-28T16:44:27;11.80;;;4.30;;
76550;SDS011;65393;53.160;18.170;2023-02-28T16:46:56;12.90;;;5.30;;
76550;SDS011;65393;53.160;18.170;2023-02-28T16:49:22;9.80;;;4.50;;
76550;SDS011;65393;53.160;18.170;2023-02-28T16:51:49;14.50;;;5.20;;
76550;SDS011;65393;53.160;18.170;2023-02-28T16:54:16;9.20;;;4.40;;
76550;SDS011;65393;53.160;18.170;2023-02-28T16:56:44;14.50;;;5.70;;
76550;SDS011;65393;53.160;18.170;2023-02-28T16:59:13;13.80;;;5.30;;
76550;SDS011;65393;53.160;18.170;2023-02-28T17:01:44;12.40;;;5.10;;
76550;SDS011;65393;53.160;18.170;2023-02-28T17:04:11;14.00;;;5.50;;
76550;SDS011;65393;53.160;18.170;2023-02-28T17:06:38;17.70;;;5.00;;
76550;SDS011;65393;53.160;18.170;2023-02-28T17:09:04;10.70;;;5.10;;
76550;SDS011;65393;53.160;18.170;2023-02-28T17:11:32;11.30;;;4.20;;